createdAt,value
2022-12-11T00:00:56.448Z,1.50
2022-12-11T00:05:52.322Z,1.50
2022-12-11T00:10:50.055Z,1.40
2022-12-11T00:13:17.752Z,1.40
2022-12-11T00:15:45.473Z,1.30
2022-12-11T00:18:15.021Z,1.40
2022-12-11T00:20:42.755Z,1.30
2022-12-11T00:23:11.220Z,1.30
2022-12-11T00:25:47.108Z,1.30
2022-12-11T00:28:19.093Z,1.20
2022-12-11T00:30:47.778Z,1.30
2022-12-11T00:33:15.942Z,1.30
2022-12-11T00:35:45.817Z,1.30
2022-12-11T00:38:18.772Z,1.30
2022-12-11T00:40:46.978Z,1.30
2022-12-11T00:43:15.199Z,3.90
2022-12-11T00:45:45.309Z,1.30
2022-12-11T00:48:13.697Z,1.30
2022-12-11T00:50:43.238Z,1.30
2022-12-11T00:53:11.050Z,1.30
2022-12-11T00:55:40.957Z,1.30
2022-12-11T00:58:09.365Z,1.30
2022-12-11T01:00:38.160Z,1.30
2022-12-11T01:03:08.026Z,1.30
2022-12-11T01:05:35.982Z,1.30
2022-12-11T01:08:04.328Z,1.30
2022-12-11T01:10:32.763Z,1.30
2022-12-11T01:13:04.922Z,1.30
2022-12-11T01:15:41.568Z,0.10
2022-12-11T01:18:11.620Z,1.30
2022-12-11T01:20:40.846Z,1.30
2022-12-11T01:23:10.011Z,1.30
2022-12-11T01:25:40.506Z,1.30
2022-12-11T01:28:08.503Z,1.40
2022-12-11T01:30:37.258Z,1.30
2022-12-11T01:33:05.034Z,1.30
2022-12-11T01:35:32.723Z,1.30
2022-12-11T01:38:00.611Z,1.30
2022-12-11T01:40:28.289Z,1.20
2022-12-11T01:42:55.978Z,1.20
2022-12-11T01:45:38.926Z,1.20
2022-12-11T01:48:14.307Z,1.10
2022-12-11T01:50:49.282Z,1.10
2022-12-11T01:53:25.380Z,1.10
2022-12-11T01:55:57.024Z,1.10
2022-12-11T01:58:29.669Z,4.20
2022-12-11T02:00:58.311Z,1.20
2022-12-11T02:05:54.047Z,1.10
2022-12-11T02:08:21.984Z,1.10
2022-12-11T02:11:19.281Z,1.10
2022-12-11T02:14:11.093Z,1.00
2022-12-11T02:16:50.982Z,1.10
2022-12-11T02:19:38.399Z,1.00
2022-12-11T02:22:11.496Z,1.00
2022-12-11T02:25:05.264Z,1.10
2022-12-11T02:27:43.152Z,1.10
2022-12-11T02:30:14.242Z,1.10
2022-12-11T02:32:55.525Z,1.10
2022-12-11T02:35:26.131Z,1.10
2022-12-11T02:38:03.590Z,1.10
2022-12-11T02:40:35.277Z,1.10
2022-12-11T02:43:07.221Z,1.10
2022-12-11T02:45:36.343Z,1.10
2022-12-11T02:48:06.562Z,1.00
2022-12-11T02:50:36.500Z,0.90
2022-12-11T02:53:06.571Z,1.00
2022-12-11T02:55:37.512Z,0.90
2022-12-11T02:58:28.200Z,0.90
2022-12-11T03:00:56.020Z,0.90
2022-12-11T03:03:24.167Z,0.80
2022-12-11T03:05:51.894Z,0.90
2022-12-11T03:08:19.535Z,0.90
2022-12-11T03:10:47.462Z,0.90
2022-12-11T03:13:20.099Z,0.90
2022-12-11T03:15:56.626Z,0.90
2022-12-11T03:18:34.205Z,0.90
2022-12-11T03:21:09.669Z,0.90
2022-12-11T03:23:49.876Z,0.80
2022-12-11T03:26:20.142Z,0.80
2022-12-11T03:29:00.565Z,0.80
2022-12-11T03:31:35.025Z,0.80
2022-12-11T03:34:09.270Z,0.90
2022-12-11T03:36:38.712Z,0.90
2022-12-11T03:39:11.466Z,0.90
2022-12-11T03:41:41.245Z,1.00
2022-12-11T03:44:12.486Z,1.00
2022-12-11T03:46:43.693Z,1.00
2022-12-11T03:49:22.242Z,1.00
2022-12-11T03:51:53.305Z,1.10
2022-12-11T03:54:21.526Z,1.20
2022-12-11T03:56:51.168Z,1.20
2022-12-11T03:59:19.356Z,1.20
2022-12-11T04:04:15.427Z,1.20
2022-12-11T04:06:43.457Z,1.30
2022-12-11T04:09:11.589Z,1.30
2022-12-11T04:11:39.705Z,1.30
2022-12-11T04:14:30.405Z,4.20
2022-12-11T04:17:00.099Z,1.30
2022-12-11T04:19:46.666Z,1.30
2022-12-11T04:22:34.757Z,1.40
2022-12-11T04:25:03.432Z,1.40
2022-12-11T04:27:49.027Z,1.40
2022-12-11T04:30:23.128Z,1.40
2022-12-11T04:32:51.591Z,1.40
2022-12-11T04:35:20.608Z,1.40
2022-12-11T04:37:48.583Z,1.40
2022-12-11T04:40:17.274Z,1.50
2022-12-11T04:42:44.924Z,1.50
2022-12-11T04:45:13.403Z,1.50
2022-12-11T04:47:41.727Z,1.50
2022-12-11T04:50:10.098Z,4.10
2022-12-11T04:52:37.733Z,1.50
2022-12-11T04:55:06.667Z,1.60
2022-12-11T04:57:34.875Z,1.60
2022-12-11T05:00:04.837Z,1.60
2022-12-11T05:02:36.275Z,1.50
2022-12-11T05:05:13.180Z,1.50
2022-12-11T05:07:41.318Z,1.50
2022-12-11T05:10:09.606Z,1.50
2022-12-11T05:12:37.409Z,1.50
2022-12-11T05:15:05.396Z,1.50
2022-12-11T05:19:07.467Z,1.60
2022-12-11T05:21:35.501Z,1.50
2022-12-11T05:24:03.418Z,1.50
2022-12-11T05:26:31.051Z,1.60
2022-12-11T05:28:58.891Z,2.50
2022-12-11T05:31:27.995Z,1.60
2022-12-11T05:33:56.371Z,1.60
2022-12-11T05:36:27.555Z,1.60
2022-12-11T05:38:55.749Z,1.70
2022-12-11T05:41:25.862Z,1.70
2022-12-11T05:43:53.852Z,1.60
2022-12-11T05:46:23.767Z,1.70
2022-12-11T05:48:54.689Z,1.70
2022-12-11T05:51:22.952Z,1.60
2022-12-11T05:53:52.268Z,1.70
2022-12-11T05:56:23.906Z,1.70
2022-12-11T05:58:52.412Z,1.70
2022-12-11T06:01:30.219Z,1.70
2022-12-11T06:03:58.956Z,1.70
2022-12-11T06:06:28.244Z,1.70
2022-12-11T06:08:57.935Z,1.70
2022-12-11T06:11:29.697Z,1.70
2022-12-11T06:13:57.668Z,1.80
2022-12-11T06:16:25.481Z,1.80
2022-12-11T06:18:57.866Z,1.80
2022-12-11T06:21:30.099Z,1.80
2022-12-11T06:23:59.856Z,1.70
2022-12-11T06:26:28.296Z,1.80
2022-12-11T06:28:56.009Z,1.80
2022-12-11T06:31:23.745Z,1.80
2022-12-11T06:36:20.942Z,1.80
2022-12-11T06:38:49.581Z,1.70
2022-12-11T06:41:17.540Z,1.70
2022-12-11T06:43:45.511Z,1.80
2022-12-11T06:46:16.064Z,1.80
2022-12-11T06:48:44.425Z,1.70
2022-12-11T06:51:14.901Z,1.70
2022-12-11T06:53:42.599Z,1.70
2022-12-11T06:56:15.850Z,4.30
2022-12-11T06:58:44.333Z,1.70
2022-12-11T07:01:24.796Z,1.70
2022-12-11T07:03:57.508Z,1.70
2022-12-11T07:06:26.677Z,1.70
2022-12-11T07:08:54.641Z,1.70
2022-12-11T07:11:22.416Z,1.70
2022-12-11T07:13:50.317Z,1.70
2022-12-11T07:16:18.890Z,1.70
2022-12-11T07:18:49.404Z,1.60
2022-12-11T07:21:17.755Z,1.70
2022-12-11T07:23:45.559Z,1.70
2022-12-11T07:26:15.926Z,1.70
2022-12-11T07:28:43.957Z,1.70
2022-12-11T07:31:13.235Z,1.70
2022-12-11T07:33:41.427Z,2.00
2022-12-11T07:36:11.404Z,1.70
2022-12-11T07:38:39.260Z,1.70
2022-12-11T07:41:11.188Z,1.70
2022-12-11T07:43:39.103Z,1.70
2022-12-11T07:46:17.021Z,1.70
2022-12-11T07:48:46.402Z,1.70
2022-12-11T07:51:17.553Z,1.70
2022-12-11T07:53:47.950Z,1.70
2022-12-11T07:56:16.943Z,1.80
2022-12-11T07:58:45.680Z,1.70
2022-12-11T08:01:16.777Z,1.70
2022-12-11T08:03:44.806Z,1.70
2022-12-11T08:06:13.539Z,1.70
2022-12-11T08:08:42.180Z,1.70
2022-12-11T08:11:14.191Z,1.70
2022-12-11T08:13:43.125Z,1.80
2022-12-11T08:16:13.426Z,1.70
2022-12-11T08:18:42.598Z,1.80
2022-12-11T08:21:13.575Z,1.80
2022-12-11T08:23:41.358Z,1.80
2022-12-11T08:26:16.550Z,1.80
2022-12-11T08:28:44.774Z,1.80
2022-12-11T08:31:12.871Z,1.80
2022-12-11T08:33:41.935Z,1.80
2022-12-11T08:36:13.291Z,1.80
2022-12-11T08:38:41.617Z,1.90
2022-12-11T08:41:14.705Z,1.90
2022-12-11T08:43:43.137Z,1.80
2022-12-11T08:46:13.400Z,1.90
2022-12-11T08:48:42.722Z,1.90
2022-12-11T08:51:16.673Z,1.90
2022-12-11T08:53:44.847Z,1.90
2022-12-11T08:56:15.994Z,1.90
2022-12-11T08:58:44.775Z,2.00
2022-12-11T09:01:24.915Z,2.00
2022-12-11T09:03:54.352Z,2.00
2022-12-11T09:06:23.884Z,2.00
2022-12-11T09:08:53.424Z,2.10
2022-12-11T09:11:24.268Z,2.10
2022-12-11T09:13:53.011Z,2.20
2022-12-11T09:16:23.670Z,2.10
2022-12-11T09:18:53.614Z,2.20
2022-12-11T09:21:26.408Z,2.20
2022-12-11T09:23:56.494Z,2.20
2022-12-11T09:26:25.525Z,2.20
2022-12-11T09:28:54.229Z,2.20
2022-12-11T09:31:28.065Z,2.30
2022-12-11T09:33:58.540Z,2.30
2022-12-11T09:36:26.328Z,2.30
2022-12-11T09:38:54.296Z,2.30
2022-12-11T09:41:22.140Z,2.30
2022-12-11T09:43:58.521Z,2.30
2022-12-11T09:46:33.537Z,2.30
2022-12-11T09:49:04.124Z,2.30
2022-12-11T09:51:42.858Z,2.10
2022-12-11T09:54:14.917Z,2.30
2022-12-11T09:56:57.837Z,2.30
2022-12-11T09:59:38.606Z,2.30
2022-12-11T10:02:23.230Z,2.30
2022-12-11T10:05:04.605Z,2.40
2022-12-11T10:07:42.254Z,2.40
2022-12-11T10:10:39.406Z,2.40
2022-12-11T10:13:45.875Z,2.40
2022-12-11T10:16:44.540Z,2.40
2022-12-11T10:19:20.744Z,2.50
2022-12-11T10:21:51.081Z,2.50
2022-12-11T10:25:10.085Z,2.50
2022-12-11T10:27:35.889Z,2.60
2022-12-11T10:30:20.897Z,2.60
2022-12-11T10:33:26.317Z,2.60
2022-12-11T10:35:54.186Z,2.60
2022-12-11T10:38:34.578Z,2.60
2022-12-11T10:41:12.580Z,2.60
2022-12-11T10:43:50.024Z,2.70
2022-12-11T10:46:25.479Z,2.70
2022-12-11T10:48:59.724Z,2.70
2022-12-11T10:51:30.510Z,2.70
2022-12-11T10:54:26.222Z,2.70
2022-12-11T10:56:56.885Z,2.70
2022-12-11T10:59:33.986Z,2.80
2022-12-11T11:02:02.609Z,2.80
2022-12-11T11:04:39.246Z,2.80
2022-12-11T11:07:17.280Z,2.90
2022-12-11T11:09:45.438Z,2.90
2022-12-11T11:12:36.082Z,2.90
2022-12-11T11:15:13.555Z,3.00
2022-12-11T11:17:54.595Z,3.00
2022-12-11T11:20:31.830Z,3.10
2022-12-11T11:23:13.001Z,3.10
2022-12-11T11:26:00.627Z,3.10
2022-12-11T11:28:48.474Z,3.20
2022-12-11T11:31:17.881Z,3.20
2022-12-11T11:34:08.572Z,3.20
2022-12-11T11:36:37.989Z,3.20
2022-12-11T11:39:31.487Z,3.20
2022-12-11T11:42:28.111Z,3.20
2022-12-11T11:45:37.859Z,3.30
2022-12-11T11:48:36.982Z,3.30
2022-12-11T11:51:16.049Z,3.20
2022-12-11T11:53:48.693Z,3.30
2022-12-11T11:56:37.836Z,3.30
2022-12-11T11:59:19.694Z,3.40
2022-12-11T12:01:47.927Z,3.40
2022-12-11T12:04:16.180Z,3.40
2022-12-11T12:06:56.304Z,3.50
2022-12-11T12:09:54.821Z,3.50
2022-12-11T12:12:27.528Z,3.50
2022-12-11T12:15:34.360Z,3.50
2022-12-11T12:18:11.294Z,3.60
2022-12-11T12:20:41.891Z,3.60
2022-12-11T12:23:33.315Z,3.60
2022-12-11T12:26:33.976Z,3.60
2022-12-11T12:29:18.287Z,3.60
2022-12-11T12:32:11.318Z,3.60
2022-12-11T12:35:09.915Z,3.50
2022-12-11T12:38:11.453Z,3.40
2022-12-11T12:41:05.220Z,3.40
2022-12-11T12:44:08.747Z,3.50
2022-12-11T12:46:58.675Z,3.40
2022-12-11T12:49:36.508Z,3.40
2022-12-11T12:52:11.679Z,3.40
2022-12-11T12:57:13.924Z,3.40
2022-12-11T12:59:42.384Z,3.40
2022-12-11T13:02:17.048Z,3.40
2022-12-11T13:04:56.607Z,3.50
2022-12-11T13:07:33.041Z,3.50
2022-12-11T13:10:07.538Z,3.50
2022-12-11T13:12:46.802Z,3.50
2022-12-11T13:15:39.140Z,3.50
2022-12-11T13:18:32.895Z,3.50
2022-12-11T13:21:01.391Z,3.50
2022-12-11T13:23:35.441Z,3.60
2022-12-11T13:26:09.814Z,3.60
2022-12-11T13:28:40.410Z,3.60
2022-12-11T13:31:28.123Z,3.50
2022-12-11T13:33:58.546Z,3.60
2022-12-11T13:36:34.048Z,3.60
2022-12-11T13:39:31.036Z,3.60
2022-12-11T13:42:11.831Z,3.60
2022-12-11T13:44:47.491Z,3.60
2022-12-11T13:47:18.472Z,3.50
2022-12-11T13:49:50.184Z,3.50
2022-12-11T13:52:23.469Z,3.40
2022-12-11T13:54:53.656Z,3.30
2022-12-11T13:57:25.971Z,3.30
2022-12-11T13:59:56.059Z,3.30
2022-12-11T14:02:39.489Z,3.20
2022-12-11T14:05:10.362Z,3.20
2022-12-11T14:07:55.277Z,3.20
2022-12-11T14:10:28.438Z,3.20
2022-12-11T14:13:02.005Z,3.10
2022-12-11T14:15:31.878Z,3.10
2022-12-11T14:18:01.133Z,3.10
2022-12-11T14:20:32.026Z,3.10
2022-12-11T14:23:18.169Z,3.10
2022-12-11T14:26:20.337Z,3.10
2022-12-11T14:28:48.447Z,3.10
2022-12-11T14:31:26.460Z,3.10
2022-12-11T14:34:00.097Z,4.00
2022-12-11T14:36:30.299Z,3.00
2022-12-11T14:39:05.003Z,3.00
2022-12-11T14:42:05.602Z,3.00
2022-12-11T14:44:41.025Z,3.00
2022-12-11T14:47:18.916Z,3.00
2022-12-11T14:50:01.124Z,3.00
2022-12-11T14:52:33.972Z,3.00
2022-12-11T14:55:14.263Z,3.00
2022-12-11T14:57:45.961Z,3.00
2022-12-11T15:00:26.235Z,3.00
2022-12-11T15:02:59.613Z,3.00
2022-12-11T15:05:28.619Z,3.00
2022-12-11T15:08:05.747Z,2.90
2022-12-11T15:11:03.326Z,2.90
2022-12-11T15:13:32.121Z,2.90
2022-12-11T15:16:00.655Z,2.90
2022-12-11T15:18:33.003Z,2.90
2022-12-11T15:21:07.190Z,2.80
2022-12-11T15:23:45.895Z,2.80
2022-12-11T15:26:13.951Z,2.80
2022-12-11T15:28:41.608Z,2.80
2022-12-11T15:31:29.603Z,2.80
2022-12-11T15:33:57.916Z,3.90
2022-12-11T15:36:37.525Z,2.80
2022-12-11T15:39:08.775Z,2.80
2022-12-11T15:41:36.825Z,2.80
2022-12-11T15:44:04.894Z,4.00
2022-12-11T15:46:35.789Z,2.70
2022-12-11T15:49:12.565Z,2.70
2022-12-11T15:54:11.297Z,2.60
2022-12-11T15:56:40.151Z,2.50
2022-12-11T15:59:08.118Z,2.50
2022-12-11T16:01:35.853Z,2.50
2022-12-11T16:04:05.429Z,2.50
2022-12-11T16:06:34.365Z,2.50
2022-12-11T16:11:31.863Z,2.40
2022-12-11T16:14:03.957Z,2.40
2022-12-11T16:16:32.249Z,2.40
2022-12-11T16:19:01.008Z,2.40
2022-12-11T16:21:28.727Z,2.40
2022-12-11T16:23:56.505Z,2.40
2022-12-11T16:26:24.132Z,2.40
2022-12-11T16:28:51.776Z,3.00
2022-12-11T16:31:19.668Z,2.40
2022-12-11T16:33:47.447Z,2.40
2022-12-11T16:36:17.237Z,2.30
2022-12-11T16:38:52.916Z,2.30
2022-12-11T16:41:23.118Z,2.30
2022-12-11T16:43:50.844Z,2.20
2022-12-11T16:46:19.902Z,2.20
2022-12-11T16:48:47.775Z,2.20
2022-12-11T16:51:16.386Z,2.20
2022-12-11T16:53:44.104Z,2.20
2022-12-11T16:56:11.673Z,2.20
2022-12-11T16:58:40.772Z,2.20
2022-12-11T17:01:13.348Z,2.20
2022-12-11T17:03:42.991Z,2.20
2022-12-11T17:06:14.019Z,2.20
2022-12-11T17:08:43.252Z,2.30
2022-12-11T17:11:14.838Z,2.30
2022-12-11T17:13:43.376Z,2.20
2022-12-11T17:16:13.764Z,2.20
2022-12-11T17:18:42.649Z,2.30
2022-12-11T17:21:16.171Z,2.30
2022-12-11T17:23:44.979Z,2.30
2022-12-11T17:26:13.008Z,2.30
2022-12-11T17:28:41.242Z,2.30
2022-12-11T17:31:12.669Z,2.30
2022-12-11T17:36:09.045Z,2.20
2022-12-11T17:38:36.944Z,2.20
2022-12-11T17:41:07.585Z,2.20
2022-12-11T17:43:35.202Z,2.20
2022-12-11T17:46:03.800Z,3.30
2022-12-11T17:48:31.811Z,2.20
2022-12-11T17:51:04.217Z,2.20
2022-12-11T17:53:32.863Z,2.20
2022-12-11T17:56:02.031Z,2.20
2022-12-11T17:58:30.328Z,1.10
2022-12-11T18:00:58.672Z,2.20
2022-12-11T18:03:27.917Z,2.60
2022-12-11T18:05:57.218Z,2.40
2022-12-11T18:08:29.892Z,-0.10
2022-12-11T18:11:10.246Z,2.10
2022-12-11T18:13:38.022Z,2.00
2022-12-11T18:16:17.757Z,2.10
2022-12-11T18:18:46.959Z,2.00
2022-12-11T18:21:16.660Z,2.00
2022-12-11T18:23:45.169Z,1.90
2022-12-11T18:26:14.925Z,2.90
2022-12-11T18:28:42.933Z,1.90
2022-12-11T18:31:11.449Z,1.90
2022-12-11T18:33:40.073Z,1.90
2022-12-11T18:36:08.422Z,1.90
2022-12-11T18:38:37.048Z,1.90
2022-12-11T18:41:08.055Z,1.90
2022-12-11T18:43:37.727Z,1.80
2022-12-11T18:46:07.841Z,1.90
2022-12-11T18:48:35.709Z,1.90
2022-12-11T18:51:11.194Z,1.80
2022-12-11T18:53:39.745Z,1.80
2022-12-11T18:56:10.384Z,1.80
2022-12-11T18:58:38.545Z,1.80
2022-12-11T19:01:16.204Z,1.80
2022-12-11T19:03:44.794Z,1.70
2022-12-11T19:06:18.705Z,1.70
2022-12-11T19:08:46.889Z,1.70
2022-12-11T19:11:15.964Z,1.60
2022-12-11T19:13:44.425Z,1.60
2022-12-11T19:16:17.948Z,1.50
2022-12-11T19:18:47.394Z,1.50
2022-12-11T19:21:17.039Z,1.50
2022-12-11T19:23:48.507Z,1.50
2022-12-11T19:26:19.624Z,1.40
2022-12-11T19:28:48.853Z,1.50
2022-12-11T19:31:19.606Z,1.50
2022-12-11T19:33:49.437Z,1.50
2022-12-11T19:36:21.965Z,1.50
2022-12-11T19:38:54.389Z,1.60
2022-12-11T19:41:27.460Z,1.60
2022-12-11T19:43:58.938Z,1.60
2022-12-11T19:46:27.919Z,2.10
2022-12-11T19:48:57.293Z,2.00
2022-12-11T19:51:28.748Z,1.60
2022-12-11T19:53:56.893Z,1.60
2022-12-11T19:56:24.602Z,1.60
2022-12-11T19:58:52.142Z,1.60
2022-12-11T20:01:30.247Z,1.70
2022-12-11T20:04:02.218Z,1.60
2022-12-11T20:06:32.144Z,1.60
2022-12-11T20:08:59.936Z,1.50
2022-12-11T20:11:28.187Z,1.50
2022-12-11T20:13:56.662Z,1.50
2022-12-11T20:16:46.209Z,1.40
2022-12-11T20:19:12.618Z,1.40
2022-12-11T20:21:40.253Z,1.30
2022-12-11T20:24:08.982Z,1.30
2022-12-11T20:26:38.269Z,1.20
2022-12-11T20:29:08.363Z,1.20
2022-12-11T20:31:36.728Z,1.20
2022-12-11T20:34:05.004Z,1.20
2022-12-11T20:36:33.215Z,1.20
2022-12-11T20:39:01.542Z,1.20
2022-12-11T20:41:29.631Z,1.10
2022-12-11T20:43:57.247Z,1.10
2022-12-11T20:46:27.546Z,1.00
2022-12-11T20:48:58.641Z,0.90
2022-12-11T20:51:27.116Z,0.90
2022-12-11T20:53:59.068Z,0.80
2022-12-11T20:56:29.936Z,0.70
2022-12-11T20:59:03.459Z,0.60
2022-12-11T21:01:33.052Z,0.50
2022-12-11T21:04:01.361Z,0.60
2022-12-11T21:06:35.780Z,0.50
2022-12-11T21:09:07.028Z,0.50
2022-12-11T21:11:35.417Z,0.40
2022-12-11T21:14:03.357Z,0.40
2022-12-11T21:16:31.310Z,0.30
2022-12-11T21:18:59.380Z,0.20
2022-12-11T21:21:28.070Z,0.60
2022-12-11T21:23:55.899Z,0.00
2022-12-11T21:26:23.986Z,-0.10
2022-12-11T21:28:52.653Z,-0.20
2022-12-11T21:33:49.543Z,-0.40
2022-12-11T21:36:18.119Z,-0.50
2022-12-11T21:38:46.943Z,-0.60
2022-12-11T21:41:20.203Z,-0.60
2022-12-11T21:46:39.678Z,-0.70
2022-12-11T21:49:08.596Z,-0.70
2022-12-11T21:51:42.531Z,-0.80
2022-12-11T21:54:14.673Z,-0.90
2022-12-11T21:56:42.746Z,-0.90
2022-12-11T21:59:10.443Z,0.10
2022-12-11T22:01:42.238Z,-1.00
2022-12-11T22:04:11.399Z,-1.10
2022-12-11T22:06:42.054Z,-1.10
2022-12-11T22:09:12.679Z,-1.10
2022-12-11T22:11:42.249Z,-1.20
2022-12-11T22:14:15.590Z,-1.20
2022-12-11T22:16:43.907Z,-1.10
2022-12-11T22:19:11.576Z,0.00
2022-12-11T22:21:39.331Z,-1.20
2022-12-11T22:24:07.412Z,-1.30
2022-12-11T22:26:35.436Z,-1.20
2022-12-11T22:31:32.726Z,0.70
2022-12-11T22:34:06.601Z,-1.10
2022-12-11T22:39:02.284Z,-1.10
2022-12-11T22:41:32.232Z,-1.20
2022-12-11T22:44:02.521Z,-1.10
2022-12-11T22:46:31.322Z,-1.20
2022-12-11T22:48:59.694Z,-1.20
2022-12-11T22:53:55.987Z,-1.30
2022-12-11T22:56:23.549Z,-1.30
2022-12-11T22:58:51.665Z,-1.30
2022-12-11T23:01:24.685Z,-1.30
2022-12-11T23:03:53.097Z,-1.30
2022-12-11T23:06:24.682Z,-1.40
2022-12-11T23:08:57.871Z,-1.40
2022-12-11T23:11:35.083Z,-1.40
2022-12-11T23:14:07.942Z,-1.40
2022-12-11T23:16:35.751Z,-1.40
2022-12-11T23:19:03.988Z,-1.40
2022-12-11T23:21:36.940Z,-1.40
2022-12-11T23:24:05.078Z,-1.30
2022-12-11T23:26:32.708Z,-1.30
2022-12-11T23:29:04.847Z,-1.20
2022-12-11T23:31:34.550Z,-1.20
2022-12-11T23:34:02.216Z,-1.10
2022-12-11T23:36:30.850Z,-1.00
2022-12-11T23:39:00.059Z,-1.00
2022-12-11T23:41:27.848Z,-1.00
2022-12-11T23:43:55.579Z,-1.00
2022-12-11T23:46:25.252Z,-0.90
2022-12-11T23:48:53.914Z,-0.90
2022-12-11T23:51:24.248Z,-0.90
2022-12-11T23:53:52.668Z,-0.80
2022-12-11T23:56:30.186Z,-0.80
2022-12-11T23:58:59.122Z,-0.70
